sensor_id;sensor_type;location;lat;lon;timestamp;P1;durP1;ratioP1;P2;durP2;ratioP2
35745;SDS011;21870;42.812;74.628;2023-02-15T00:01:46;12.07;;;7.45;;
35745;SDS011;21870;42.812;74.628;2023-02-15T00:04:14;8.50;;;6.75;;
35745;SDS011;21870;42.812;74.628;2023-02-15T00:06:42;8.45;;;7.22;;
35745;SDS011;21870;42.812;74.628;2023-02-15T00:09:11;11.70;;;8.48;;
35745;SDS011;21870;42.812;74.628;2023-02-15T00:11:37;14.27;;;9.65;;
35745;SDS011;21870;42.812;74.628;2023-02-15T00:14:24;9.07;;;8.10;;
35745;SDS011;21870;42.812;74.628;2023-02-15T00:16:51;11.93;;;8.45;;
35745;SDS011;21870;42.812;74.628;2023-02-15T00:19:18;12.52;;;8.00;;
35745;SDS011;21870;42.812;74.628;2023-02-15T00:21:46;10.90;;;7.95;;
35745;SDS011;21870;42.812;74.628;2023-02-15T00:24:14;16.77;;;14.20;;
35745;SDS011;21870;42.812;74.628;2023-02-15T00:26:41;9.15;;;7.68;;
35745;SDS011;21870;42.812;74.628;2023-02-15T00:29:09;10.80;;;7.70;;
35745;SDS011;21870;42.812;74.628;2023-02-15T00:31:36;9.27;;;7.45;;
35745;SDS011;21870;42.812;74.628;2023-02-15T00:34:13;11.05;;;8.00;;
35745;SDS011;21870;42.812;74.628;2023-02-15T00:36:41;7.88;;;5.65;;
35745;SDS011;21870;42.812;74.628;2023-02-15T00:39:08;17.20;;;9.40;;
35745;SDS011;21870;42.812;74.628;2023-02-15T00:41:34;9.80;;;7.95;;
35745;SDS011;21870;42.812;74.628;2023-02-15T00:44:01;5.65;;;4.45;;
35745;SDS011;21870;42.812;74.628;2023-02-15T00:46:27;6.47;;;4.50;;
35745;SDS011;21870;42.812;74.628;2023-02-15T00:48:54;6.32;;;4.28;;
35745;SDS011;21870;42.812;74.628;2023-02-15T00:51:20;5.78;;;4.05;;
35745;SDS011;21870;42.812;74.628;2023-02-15T00:53:46;7.05;;;3.88;;
35745;SDS011;21870;42.812;74.628;2023-02-15T00:56:12;4.38;;;3.40;;
35745;SDS011;21870;42.812;74.628;2023-02-15T00:58:38;7.25;;;4.05;;
35745;SDS011;21870;42.812;74.628;2023-02-15T01:01:09;7.88;;;4.10;;
35745;SDS011;21870;42.812;74.628;2023-02-15T01:03:40;3.90;;;3.58;;
35745;SDS011;21870;42.812;74.628;2023-02-15T01:06:11;7.90;;;4.65;;
35745;SDS011;21870;42.812;74.628;2023-02-15T01:08:38;6.07;;;4.75;;
35745;SDS011;21870;42.812;74.628;2023-02-15T01:11:05;7.70;;;4.55;;
35745;SDS011;21870;42.812;74.628;2023-02-15T01:13:33;5.05;;;3.95;;
35745;SDS011;21870;42.812;74.628;2023-02-15T01:16:00;7.68;;;4.57;;
35745;SDS011;21870;42.812;74.628;2023-02-15T01:18:27;11.60;;;8.07;;
35745;SDS011;21870;42.812;74.628;2023-02-15T01:20:55;21.33;;;11.90;;
35745;SDS011;21870;42.812;74.628;2023-02-15T01:23:21;39.25;;;20.65;;
35745;SDS011;21870;42.812;74.628;2023-02-15T01:25:47;14.27;;;8.70;;
35745;SDS011;21870;42.812;74.628;2023-02-15T01:28:13;9.13;;;7.22;;
35745;SDS011;21870;42.812;74.628;2023-02-15T01:30:39;9.90;;;8.07;;
35745;SDS011;21870;42.812;74.628;2023-02-15T01:33:06;11.18;;;7.47;;
35745;SDS011;21870;42.812;74.628;2023-02-15T01:35:32;9.95;;;8.35;;
35745;SDS011;21870;42.812;74.628;2023-02-15T01:37:58;11.43;;;8.57;;
35745;SDS011;21870;42.812;74.628;2023-02-15T01:40:24;11.32;;;9.40;;
35745;SDS011;21870;42.812;74.628;2023-02-15T01:42:54;13.95;;;10.25;;
35745;SDS011;21870;42.812;74.628;2023-02-15T01:45:25;18.38;;;10.88;;
35745;SDS011;21870;42.812;74.628;2023-02-15T01:47:58;19.50;;;12.15;;
35745;SDS011;21870;42.812;74.628;2023-02-15T01:50:31;20.67;;;13.95;;
35745;SDS011;21870;42.812;74.628;2023-02-15T01:53:24;20.83;;;14.80;;
35745;SDS011;21870;42.812;74.628;2023-02-15T01:56:11;32.42;;;15.02;;
35745;SDS011;21870;42.812;74.628;2023-02-15T01:58:42;21.17;;;15.20;;
35745;SDS011;21870;42.812;74.628;2023-02-15T02:01:08;20.95;;;15.98;;
35745;SDS011;21870;42.812;74.628;2023-02-15T02:06:30;19.13;;;15.30;;
35745;SDS011;21870;42.812;74.628;2023-02-15T02:08:58;21.23;;;14.80;;
35745;SDS011;21870;42.812;74.628;2023-02-15T02:11:25;20.30;;;14.02;;
35745;SDS011;21870;42.812;74.628;2023-02-15T02:13:51;15.88;;;13.70;;
35745;SDS011;21870;42.812;74.628;2023-02-15T02:21:51;28.02;;;19.60;;
35745;SDS011;21870;42.812;74.628;2023-02-15T02:24:32;28.50;;;22.33;;
35745;SDS011;21870;42.812;74.628;2023-02-15T02:30:14;32.65;;;24.85;;
35745;SDS011;21870;42.812;74.628;2023-02-15T02:36:19;36.38;;;26.95;;
35745;SDS011;21870;42.812;74.628;2023-02-15T02:41:09;44.17;;;32.65;;
35745;SDS011;21870;42.812;74.628;2023-02-15T02:46:36;40.65;;;31.38;;
35745;SDS011;21870;42.812;74.628;2023-02-15T02:49:15;44.15;;;32.22;;
35745;SDS011;21870;42.812;74.628;2023-02-15T02:51:42;40.10;;;30.00;;
35745;SDS011;21870;42.812;74.628;2023-02-15T02:54:08;40.55;;;29.67;;
35745;SDS011;21870;42.812;74.628;2023-02-15T02:56:37;42.03;;;32.40;;
35745;SDS011;21870;42.812;74.628;2023-02-15T03:04:45;41.00;;;29.80;;
35745;SDS011;21870;42.812;74.628;2023-02-15T03:07:18;38.00;;;29.60;;
35745;SDS011;21870;42.812;74.628;2023-02-15T03:09:54;41.28;;;30.10;;
35745;SDS011;21870;42.812;74.628;2023-02-15T03:12:35;44.22;;;31.90;;
35745;SDS011;21870;42.812;74.628;2023-02-15T03:15:11;44.63;;;34.67;;
35745;SDS011;21870;42.812;74.628;2023-02-15T03:17:42;40.55;;;31.52;;
35745;SDS011;21870;42.812;74.628;2023-02-15T03:20:16;47.80;;;31.55;;
35745;SDS011;21870;42.812;74.628;2023-02-15T03:22:58;44.53;;;30.92;;
35745;SDS011;21870;42.812;74.628;2023-02-15T03:25:32;42.65;;;32.22;;
35745;SDS011;21870;42.812;74.628;2023-02-15T03:28:03;32.47;;;25.00;;
35745;SDS011;21870;42.812;74.628;2023-02-15T03:30:33;35.97;;;27.17;;
35745;SDS011;21870;42.812;74.628;2023-02-15T03:33:01;33.00;;;24.27;;
35745;SDS011;21870;42.812;74.628;2023-02-15T03:38:29;35.58;;;24.77;;
35745;SDS011;21870;42.812;74.628;2023-02-15T03:41:08;29.30;;;22.65;;
35745;SDS011;21870;42.812;74.628;2023-02-15T03:43:40;27.70;;;22.98;;
35745;SDS011;21870;42.812;74.628;2023-02-15T03:46:20;28.48;;;23.55;;
35745;SDS011;21870;42.812;74.628;2023-02-15T03:48:53;31.42;;;21.08;;
35745;SDS011;21870;42.812;74.628;2023-02-15T03:51:29;32.85;;;25.15;;
35745;SDS011;21870;42.812;74.628;2023-02-15T03:54:11;30.17;;;25.33;;
35745;SDS011;21870;42.812;74.628;2023-02-15T03:57:02;30.27;;;22.85;;
35745;SDS011;21870;42.812;74.628;2023-02-15T03:59:47;25.35;;;22.17;;
35745;SDS011;21870;42.812;74.628;2023-02-15T04:03:21;31.35;;;20.88;;
35745;SDS011;21870;42.812;74.628;2023-02-15T04:05:34;28.73;;;21.77;;
35745;SDS011;21870;42.812;74.628;2023-02-15T04:08:01;31.73;;;22.50;;
35745;SDS011;21870;42.812;74.628;2023-02-15T04:10:27;29.42;;;22.83;;
35745;SDS011;21870;42.812;74.628;2023-02-15T04:13:11;26.75;;;22.05;;
35745;SDS011;21870;42.812;74.628;2023-02-15T04:15:37;30.45;;;21.73;;
35745;SDS011;21870;42.812;74.628;2023-02-15T04:18:22;31.50;;;22.75;;
35745;SDS011;21870;42.812;74.628;2023-02-15T04:21:07;29.80;;;20.85;;
35745;SDS011;21870;42.812;74.628;2023-02-15T04:23:51;28.42;;;21.85;;
35745;SDS011;21870;42.812;74.628;2023-02-15T04:26:36;29.83;;;20.65;;
35745;SDS011;21870;42.812;74.628;2023-02-15T04:29:02;32.95;;;21.67;;
35745;SDS011;21870;42.812;74.628;2023-02-15T04:31:28;25.60;;;19.55;;
35745;SDS011;21870;42.812;74.628;2023-02-15T04:33:54;29.55;;;18.95;;
35745;SDS011;21870;42.812;74.628;2023-02-15T04:36:20;27.55;;;19.80;;
35745;SDS011;21870;42.812;74.628;2023-02-15T04:38:46;28.48;;;18.45;;
35745;SDS011;21870;42.812;74.628;2023-02-15T04:41:12;27.85;;;18.92;;
35745;SDS011;21870;42.812;74.628;2023-02-15T04:43:38;26.73;;;18.55;;
35745;SDS011;21870;42.812;74.628;2023-02-15T04:46:04;25.20;;;20.20;;
35745;SDS011;21870;42.812;74.628;2023-02-15T04:48:30;27.92;;;18.52;;
35745;SDS011;21870;42.812;74.628;2023-02-15T04:50:56;23.98;;;18.75;;
35745;SDS011;21870;42.812;74.628;2023-02-15T04:53:22;23.80;;;18.05;;
35745;SDS011;21870;42.812;74.628;2023-02-15T04:55:48;28.33;;;19.45;;
35745;SDS011;21870;42.812;74.628;2023-02-15T04:58:15;25.10;;;17.90;;
35745;SDS011;21870;42.812;74.628;2023-02-15T05:00:41;20.70;;;16.40;;
35745;SDS011;21870;42.812;74.628;2023-02-15T05:03:07;24.73;;;17.30;;
35745;SDS011;21870;42.812;74.628;2023-02-15T05:05:33;23.15;;;17.38;;
35745;SDS011;21870;42.812;74.628;2023-02-15T05:07:59;26.42;;;17.80;;
35745;SDS011;21870;42.812;74.628;2023-02-15T05:10:25;27.45;;;20.48;;
35745;SDS011;21870;42.812;74.628;2023-02-15T05:12:54;22.02;;;16.55;;
35745;SDS011;21870;42.812;74.628;2023-02-15T05:15:22;20.40;;;16.02;;
35745;SDS011;21870;42.812;74.628;2023-02-15T05:17:49;22.10;;;18.00;;
35745;SDS011;21870;42.812;74.628;2023-02-15T05:20:15;21.92;;;17.48;;
35745;SDS011;21870;42.812;74.628;2023-02-15T05:22:41;23.17;;;16.08;;
35745;SDS011;21870;42.812;74.628;2023-02-15T05:25:08;25.05;;;15.43;;
35745;SDS011;21870;42.812;74.628;2023-02-15T05:27:52;21.48;;;16.33;;
35745;SDS011;21870;42.812;74.628;2023-02-15T05:30:37;39.90;;;18.77;;
35745;SDS011;21870;42.812;74.628;2023-02-15T05:33:05;22.17;;;14.32;;
35745;SDS011;21870;42.812;74.628;2023-02-15T05:35:32;24.55;;;14.13;;
35745;SDS011;21870;42.812;74.628;2023-02-15T05:37:59;23.05;;;14.30;;
35745;SDS011;21870;42.812;74.628;2023-02-15T05:40:25;15.90;;;14.20;;
35745;SDS011;21870;42.812;74.628;2023-02-15T05:42:52;17.73;;;14.30;;
35745;SDS011;21870;42.812;74.628;2023-02-15T05:45:18;16.77;;;14.55;;
35745;SDS011;21870;42.812;74.628;2023-02-15T05:47:44;19.63;;;16.00;;
35745;SDS011;21870;42.812;74.628;2023-02-15T05:50:10;20.83;;;14.35;;
35745;SDS011;21870;42.812;74.628;2023-02-15T05:52:36;21.17;;;13.77;;
35745;SDS011;21870;42.812;74.628;2023-02-15T05:55:03;20.40;;;13.88;;
35745;SDS011;21870;42.812;74.628;2023-02-15T05:57:29;21.67;;;11.95;;
35745;SDS011;21870;42.812;74.628;2023-02-15T05:59:56;17.63;;;12.68;;
35745;SDS011;21870;42.812;74.628;2023-02-15T06:02:22;21.13;;;13.40;;
35745;SDS011;21870;42.812;74.628;2023-02-15T06:04:48;20.75;;;12.93;;
35745;SDS011;21870;42.812;74.628;2023-02-15T06:07:14;20.40;;;12.38;;
35745;SDS011;21870;42.812;74.628;2023-02-15T06:09:40;14.90;;;10.90;;
35745;SDS011;21870;42.812;74.628;2023-02-15T06:12:06;22.92;;;11.50;;
35745;SDS011;21870;42.812;74.628;2023-02-15T06:14:32;27.15;;;13.85;;
35745;SDS011;21870;42.812;74.628;2023-02-15T06:16:58;17.85;;;10.90;;
35745;SDS011;21870;42.812;74.628;2023-02-15T06:19:24;16.13;;;10.80;;
35745;SDS011;21870;42.812;74.628;2023-02-15T06:21:50;29.63;;;17.27;;
35745;SDS011;21870;42.812;74.628;2023-02-15T06:24:17;15.48;;;11.05;;
35745;SDS011;21870;42.812;74.628;2023-02-15T06:26:43;17.08;;;11.77;;
35745;SDS011;21870;42.812;74.628;2023-02-15T06:29:09;15.82;;;11.50;;
35745;SDS011;21870;42.812;74.628;2023-02-15T06:31:35;17.73;;;13.23;;
35745;SDS011;21870;42.812;74.628;2023-02-15T06:34:01;17.77;;;12.18;;
35745;SDS011;21870;42.812;74.628;2023-02-15T06:36:28;21.25;;;12.38;;
35745;SDS011;21870;42.812;74.628;2023-02-15T06:38:54;21.25;;;18.02;;
35745;SDS011;21870;42.812;74.628;2023-02-15T06:41:21;23.60;;;12.05;;
35745;SDS011;21870;42.812;74.628;2023-02-15T06:43:47;16.67;;;11.85;;
35745;SDS011;21870;42.812;74.628;2023-02-15T06:46:13;16.60;;;11.80;;
35745;SDS011;21870;42.812;74.628;2023-02-15T06:48:40;16.17;;;11.65;;
35745;SDS011;21870;42.812;74.628;2023-02-15T06:51:06;19.90;;;10.98;;
35745;SDS011;21870;42.812;74.628;2023-02-15T06:53:32;18.33;;;12.75;;
35745;SDS011;21870;42.812;74.628;2023-02-15T06:56:02;73.45;;;52.72;;
35745;SDS011;21870;42.812;74.628;2023-02-15T06:58:32;102.85;;;76.90;;
35745;SDS011;21870;42.812;74.628;2023-02-15T07:00:58;108.40;;;79.03;;
35745;SDS011;21870;42.812;74.628;2023-02-15T07:03:24;116.47;;;81.07;;
35745;SDS011;21870;42.812;74.628;2023-02-15T07:05:57;92.72;;;72.15;;
35745;SDS011;21870;42.812;74.628;2023-02-15T07:08:25;98.57;;;69.38;;
35745;SDS011;21870;42.812;74.628;2023-02-15T07:10:52;86.97;;;65.97;;
35745;SDS011;21870;42.812;74.628;2023-02-15T07:13:19;94.25;;;71.85;;
35745;SDS011;21870;42.812;74.628;2023-02-15T07:15:46;78.95;;;56.70;;
35745;SDS011;21870;42.812;74.628;2023-02-15T07:18:13;85.88;;;62.42;;
35745;SDS011;21870;42.812;74.628;2023-02-15T07:20:39;71.90;;;54.38;;
35745;SDS011;21870;42.812;74.628;2023-02-15T07:23:07;82.65;;;62.25;;
35745;SDS011;21870;42.812;74.628;2023-02-15T07:25:34;64.78;;;42.10;;
35745;SDS011;21870;42.812;74.628;2023-02-15T07:28:02;53.92;;;42.55;;
35745;SDS011;21870;42.812;74.628;2023-02-15T07:30:29;78.25;;;54.22;;
35745;SDS011;21870;42.812;74.628;2023-02-15T07:32:56;54.40;;;39.92;;
35745;SDS011;21870;42.812;74.628;2023-02-15T07:35:48;51.72;;;38.70;;
35745;SDS011;21870;42.812;74.628;2023-02-15T07:38:16;47.92;;;33.38;;
35745;SDS011;21870;42.812;74.628;2023-02-15T07:40:43;41.13;;;32.15;;
35745;SDS011;21870;42.812;74.628;2023-02-15T07:43:10;55.38;;;40.72;;
35745;SDS011;21870;42.812;74.628;2023-02-15T07:45:36;56.45;;;41.95;;
35745;SDS011;21870;42.812;74.628;2023-02-15T07:48:03;63.17;;;40.13;;
35745;SDS011;21870;42.812;74.628;2023-02-15T07:50:30;37.65;;;25.83;;
35745;SDS011;21870;42.812;74.628;2023-02-15T07:52:56;29.17;;;24.58;;
35745;SDS011;21870;42.812;74.628;2023-02-15T07:55:23;53.97;;;36.33;;
35745;SDS011;21870;42.812;74.628;2023-02-15T07:57:50;58.70;;;43.38;;
35745;SDS011;21870;42.812;74.628;2023-02-15T08:00:17;68.80;;;50.78;;
35745;SDS011;21870;42.812;74.628;2023-02-15T08:02:48;61.88;;;46.33;;
35745;SDS011;21870;42.812;74.628;2023-02-15T08:05:36;65.10;;;48.38;;
35745;SDS011;21870;42.812;74.628;2023-02-15T08:08:03;57.65;;;41.65;;
35745;SDS011;21870;42.812;74.628;2023-02-15T08:10:30;54.47;;;39.08;;
35745;SDS011;21870;42.812;74.628;2023-02-15T08:13:15;53.72;;;38.45;;
35745;SDS011;21870;42.812;74.628;2023-02-15T08:15:47;53.80;;;34.20;;
35745;SDS011;21870;42.812;74.628;2023-02-15T08:18:16;44.67;;;33.85;;
35745;SDS011;21870;42.812;74.628;2023-02-15T08:20:42;49.03;;;36.10;;
35745;SDS011;21870;42.812;74.628;2023-02-15T08:23:13;58.55;;;43.03;;
35745;SDS011;21870;42.812;74.628;2023-02-15T08:25:39;55.83;;;42.00;;
35745;SDS011;21870;42.812;74.628;2023-02-15T08:28:05;54.20;;;39.20;;
35745;SDS011;21870;42.812;74.628;2023-02-15T08:30:34;58.17;;;40.42;;
35745;SDS011;21870;42.812;74.628;2023-02-15T08:33:00;57.17;;;40.80;;
35745;SDS011;21870;42.812;74.628;2023-02-15T08:35:27;53.40;;;37.50;;
35745;SDS011;21870;42.812;74.628;2023-02-15T08:37:53;46.97;;;36.33;;
35745;SDS011;21870;42.812;74.628;2023-02-15T08:40:20;52.88;;;37.75;;
35745;SDS011;21870;42.812;74.628;2023-02-15T08:42:46;49.67;;;36.78;;
35745;SDS011;21870;42.812;74.628;2023-02-15T08:45:12;47.13;;;32.92;;
35745;SDS011;21870;42.812;74.628;2023-02-15T08:47:38;41.58;;;32.35;;
35745;SDS011;21870;42.812;74.628;2023-02-15T08:50:05;47.58;;;34.97;;
35745;SDS011;21870;42.812;74.628;2023-02-15T08:52:31;51.63;;;33.42;;
35745;SDS011;21870;42.812;74.628;2023-02-15T08:54:57;35.53;;;29.70;;
35745;SDS011;21870;42.812;74.628;2023-02-15T08:57:23;39.15;;;30.10;;
35745;SDS011;21870;42.812;74.628;2023-02-15T08:59:49;44.13;;;31.15;;
35745;SDS011;21870;42.812;74.628;2023-02-15T09:02:16;35.92;;;23.65;;
35745;SDS011;21870;42.812;74.628;2023-02-15T09:04:42;29.70;;;21.92;;
35745;SDS011;21870;42.812;74.628;2023-02-15T09:07:08;31.15;;;22.73;;
35745;SDS011;21870;42.812;74.628;2023-02-15T09:09:34;32.65;;;23.75;;
35745;SDS011;21870;42.812;74.628;2023-02-15T09:12:00;30.20;;;24.02;;
35745;SDS011;21870;42.812;74.628;2023-02-15T09:14:26;36.33;;;25.52;;
35745;SDS011;21870;42.812;74.628;2023-02-15T09:16:53;38.20;;;25.02;;
35745;SDS011;21870;42.812;74.628;2023-02-15T09:19:20;30.60;;;23.98;;
35745;SDS011;21870;42.812;74.628;2023-02-15T09:21:46;37.13;;;23.45;;
35745;SDS011;21870;42.812;74.628;2023-02-15T09:24:14;30.20;;;23.52;;
35745;SDS011;21870;42.812;74.628;2023-02-15T09:26:42;27.40;;;21.60;;
35745;SDS011;21870;42.812;74.628;2023-02-15T09:29:10;30.67;;;22.08;;
35745;SDS011;21870;42.812;74.628;2023-02-15T09:31:37;27.58;;;21.17;;
35745;SDS011;21870;42.812;74.628;2023-02-15T09:34:06;25.83;;;19.17;;
35745;SDS011;21870;42.812;74.628;2023-02-15T09:36:33;28.60;;;18.48;;
35745;SDS011;21870;42.812;74.628;2023-02-15T09:39:11;32.40;;;19.42;;
35745;SDS011;21870;42.812;74.628;2023-02-15T09:41:45;29.73;;;21.65;;
35745;SDS011;21870;42.812;74.628;2023-02-15T09:52:33;27.30;;;19.65;;
35745;SDS011;21870;42.812;74.628;2023-02-15T10:03:30;34.30;;;23.88;;
35745;SDS011;21870;42.812;74.628;2023-02-15T10:08:51;34.33;;;25.52;;
35745;SDS011;21870;42.812;74.628;2023-02-15T10:14:12;39.30;;;25.30;;
35745;SDS011;21870;42.812;74.628;2023-02-15T10:16:55;32.80;;;22.73;;
35745;SDS011;21870;42.812;74.628;2023-02-15T10:19:32;33.85;;;23.17;;
35745;SDS011;21870;42.812;74.628;2023-02-15T10:27:48;39.30;;;27.52;;
35745;SDS011;21870;42.812;74.628;2023-02-15T10:30:20;35.20;;;25.90;;
35745;SDS011;21870;42.812;74.628;2023-02-15T10:33:09;37.65;;;27.23;;
35745;SDS011;21870;42.812;74.628;2023-02-15T10:52:21;49.42;;;30.48;;
35745;SDS011;21870;42.812;74.628;2023-02-15T11:00:47;56.35;;;33.78;;
35745;SDS011;21870;42.812;74.628;2023-02-15T11:06:26;50.53;;;31.70;;
35745;SDS011;21870;42.812;74.628;2023-02-15T11:09:11;45.38;;;31.40;;
35745;SDS011;21870;42.812;74.628;2023-02-15T11:11:42;44.95;;;32.88;;
35745;SDS011;21870;42.812;74.628;2023-02-15T11:17:43;50.40;;;35.50;;
35745;SDS011;21870;42.812;74.628;2023-02-15T11:22:47;57.95;;;35.47;;
35745;SDS011;21870;42.812;74.628;2023-02-15T11:25:18;54.13;;;34.40;;
35745;SDS011;21870;42.812;74.628;2023-02-15T11:28:03;53.22;;;36.97;;
35745;SDS011;21870;42.812;74.628;2023-02-15T11:30:42;72.60;;;43.92;;
35745;SDS011;21870;42.812;74.628;2023-02-15T11:33:15;71.10;;;45.53;;
35745;SDS011;21870;42.812;74.628;2023-02-15T11:35:49;61.90;;;41.13;;
35745;SDS011;21870;42.812;74.628;2023-02-15T11:38:26;64.30;;;36.38;;
35745;SDS011;21870;42.812;74.628;2023-02-15T11:41:09;59.80;;;39.55;;
35745;SDS011;21870;42.812;74.628;2023-02-15T11:43:41;58.40;;;36.67;;
35745;SDS011;21870;42.812;74.628;2023-02-15T11:46:19;68.25;;;43.42;;
35745;SDS011;21870;42.812;74.628;2023-02-15T11:48:46;70.70;;;53.38;;
35745;SDS011;21870;42.812;74.628;2023-02-15T11:51:14;87.28;;;54.97;;
35745;SDS011;21870;42.812;74.628;2023-02-15T11:53:46;95.55;;;57.30;;
35745;SDS011;21870;42.812;74.628;2023-02-15T11:56:17;90.30;;;54.75;;
35745;SDS011;21870;42.812;74.628;2023-02-15T11:58:49;91.28;;;52.83;;
35745;SDS011;21870;42.812;74.628;2023-02-15T12:12:33;71.68;;;48.63;;
35745;SDS011;21870;42.812;74.628;2023-02-15T12:15:02;75.25;;;52.17;;
35745;SDS011;21870;42.812;74.628;2023-02-15T12:17:39;74.43;;;51.40;;
35745;SDS011;21870;42.812;74.628;2023-02-15T12:22:38;65.97;;;50.30;;
35745;SDS011;21870;42.812;74.628;2023-02-15T12:25:24;76.63;;;52.53;;
35745;SDS011;21870;42.812;74.628;2023-02-15T12:30:55;79.22;;;59.45;;
35745;SDS011;21870;42.812;74.628;2023-02-15T12:33:30;83.15;;;64.68;;
35745;SDS011;21870;42.812;74.628;2023-02-15T12:41:57;80.65;;;58.05;;
35745;SDS011;21870;42.812;74.628;2023-02-15T12:44:32;80.53;;;57.97;;
35745;SDS011;21870;42.812;74.628;2023-02-15T12:49:27;72.38;;;56.15;;
35745;SDS011;21870;42.812;74.628;2023-02-15T12:51:55;76.55;;;59.28;;
35745;SDS011;21870;42.812;74.628;2023-02-15T12:57:22;73.60;;;53.40;;
35745;SDS011;21870;42.812;74.628;2023-02-15T13:00:04;71.70;;;54.83;;
35745;SDS011;21870;42.812;74.628;2023-02-15T13:02:54;68.43;;;53.05;;
35745;SDS011;21870;42.812;74.628;2023-02-15T13:05:25;61.28;;;48.38;;
35745;SDS011;21870;42.812;74.628;2023-02-15T13:08:15;65.30;;;52.33;;
35745;SDS011;21870;42.812;74.628;2023-02-15T13:13:23;66.30;;;53.33;;
35745;SDS011;21870;42.812;74.628;2023-02-15T13:15:52;74.07;;;55.83;;
35745;SDS011;21870;42.812;74.628;2023-02-15T13:18:32;72.82;;;55.95;;
35745;SDS011;21870;42.812;74.628;2023-02-15T13:21:12;73.22;;;59.55;;
35745;SDS011;21870;42.812;74.628;2023-02-15T13:23:45;77.30;;;62.13;;
35745;SDS011;21870;42.812;74.628;2023-02-15T13:26:16;101.15;;;90.13;;
35745;SDS011;21870;42.812;74.628;2023-02-15T13:28:46;84.97;;;71.60;;
35745;SDS011;21870;42.812;74.628;2023-02-15T13:31:22;80.72;;;62.15;;
35745;SDS011;21870;42.812;74.628;2023-02-15T13:33:51;89.30;;;69.63;;
35745;SDS011;21870;42.812;74.628;2023-02-15T13:44:29;82.05;;;60.13;;
35745;SDS011;21870;42.812;74.628;2023-02-15T13:49:47;64.38;;;51.90;;
35745;SDS011;21870;42.812;74.628;2023-02-15T13:52:39;67.40;;;54.13;;
35745;SDS011;21870;42.812;74.628;2023-02-15T13:55:33;71.28;;;53.92;;
35745;SDS011;21870;42.812;74.628;2023-02-15T14:06:49;63.05;;;47.95;;
35745;SDS011;21870;42.812;74.628;2023-02-15T14:09:36;56.70;;;45.50;;
35745;SDS011;21870;42.812;74.628;2023-02-15T14:21:08;67.93;;;52.65;;
35745;SDS011;21870;42.812;74.628;2023-02-15T14:26:47;60.58;;;47.40;;
35745;SDS011;21870;42.812;74.628;2023-02-15T14:35:05;56.60;;;46.03;;
35745;SDS011;21870;42.812;74.628;2023-02-15T14:38:01;73.78;;;55.30;;
35745;SDS011;21870;42.812;74.628;2023-02-15T14:40:42;64.03;;;47.35;;
35745;SDS011;21870;42.812;74.628;2023-02-15T14:46:09;59.05;;;46.75;;
35745;SDS011;21870;42.812;74.628;2023-02-15T14:48:49;55.95;;;46.85;;
35745;SDS011;21870;42.812;74.628;2023-02-15T14:54:08;59.95;;;45.85;;
35745;SDS011;21870;42.812;74.628;2023-02-15T14:56:35;61.28;;;49.35;;
35745;SDS011;21870;42.812;74.628;2023-02-15T14:59:22;59.72;;;46.63;;
35745;SDS011;21870;42.812;74.628;2023-02-15T15:02:01;59.08;;;49.38;;
35745;SDS011;21870;42.812;74.628;2023-02-15T15:07:44;59.05;;;47.58;;
35745;SDS011;21870;42.812;74.628;2023-02-15T15:12:48;57.33;;;46.83;;
35745;SDS011;21870;42.812;74.628;2023-02-15T15:17:57;81.45;;;56.92;;
35745;SDS011;21870;42.812;74.628;2023-02-15T15:28:06;121.88;;;87.47;;
35745;SDS011;21870;42.812;74.628;2023-02-15T15:38:55;110.90;;;83.90;;
35745;SDS011;21870;42.812;74.628;2023-02-15T15:41:53;121.38;;;86.82;;
35745;SDS011;21870;42.812;74.628;2023-02-15T15:47:47;117.00;;;84.50;;
35745;SDS011;21870;42.812;74.628;2023-02-15T15:50:38;115.18;;;85.07;;
35745;SDS011;21870;42.812;74.628;2023-02-15T15:53:06;120.72;;;88.88;;
35745;SDS011;21870;42.812;74.628;2023-02-15T15:55:40;118.45;;;88.95;;
35745;SDS011;21870;42.812;74.628;2023-02-15T15:58:07;116.80;;;87.93;;
35745;SDS011;21870;42.812;74.628;2023-02-15T16:03:13;108.35;;;84.45;;
35745;SDS011;21870;42.812;74.628;2023-02-15T16:05:42;107.68;;;84.50;;
35745;SDS011;21870;42.812;74.628;2023-02-15T16:08:08;108.82;;;81.85;;
35745;SDS011;21870;42.812;74.628;2023-02-15T16:10:34;108.43;;;85.70;;
35745;SDS011;21870;42.812;74.628;2023-02-15T16:13:02;121.43;;;86.35;;
35745;SDS011;21870;42.812;74.628;2023-02-15T16:15:36;111.80;;;87.03;;
35745;SDS011;21870;42.812;74.628;2023-02-15T16:18:17;116.47;;;88.45;;
35745;SDS011;21870;42.812;74.628;2023-02-15T16:20:58;135.35;;;94.90;;
35745;SDS011;21870;42.812;74.628;2023-02-15T16:28:36;120.60;;;94.60;;
35745;SDS011;21870;42.812;74.628;2023-02-15T16:31:10;126.07;;;95.13;;
35745;SDS011;21870;42.812;74.628;2023-02-15T16:33:39;130.40;;;99.68;;
35745;SDS011;21870;42.812;74.628;2023-02-15T16:36:09;130.40;;;94.93;;
35745;SDS011;21870;42.812;74.628;2023-02-15T16:41:16;124.13;;;93.38;;
35745;SDS011;21870;42.812;74.628;2023-02-15T16:43:48;134.88;;;98.85;;
35745;SDS011;21870;42.812;74.628;2023-02-15T16:46:16;117.25;;;92.30;;
35745;SDS011;21870;42.812;74.628;2023-02-15T16:48:45;120.43;;;95.20;;
35745;SDS011;21870;42.812;74.628;2023-02-15T16:51:23;138.48;;;103.20;;
35745;SDS011;21870;42.812;74.628;2023-02-15T16:53:52;153.00;;;112.82;;
35745;SDS011;21870;42.812;74.628;2023-02-15T16:56:29;156.00;;;124.28;;
35745;SDS011;21870;42.812;74.628;2023-02-15T16:58:57;189.65;;;140.68;;
35745;SDS011;21870;42.812;74.628;2023-02-15T17:01:25;190.48;;;144.88;;
35745;SDS011;21870;42.812;74.628;2023-02-15T17:04:13;207.32;;;;;
35745;SDS011;21870;42.812;74.628;2023-02-15T17:07:06;193.55;;;145.80;;
35745;SDS011;21870;42.812;74.628;2023-02-15T17:09:51;198.35;;;148.18;;
35745;SDS011;21870;42.812;74.628;2023-02-15T17:15:23;191.98;;;143.65;;
35745;SDS011;21870;42.812;74.628;2023-02-15T17:18:00;193.75;;;142.55;;
35745;SDS011;21870;42.812;74.628;2023-02-15T17:20:47;185.85;;;142.00;;
35745;SDS011;21870;42.812;74.628;2023-02-15T17:25:59;176.00;;;131.55;;
35745;SDS011;21870;42.812;74.628;2023-02-15T17:28:28;176.95;;;130.55;;
35745;SDS011;21870;42.812;74.628;2023-02-15T17:30:56;164.95;;;123.30;;
35745;SDS011;21870;42.812;74.628;2023-02-15T17:33:25;172.00;;;129.82;;
35745;SDS011;21870;42.812;74.628;2023-02-15T17:38:32;167.48;;;127.68;;
35745;SDS011;21870;42.812;74.628;2023-02-15T17:40:58;170.52;;;125.93;;
35745;SDS011;21870;42.812;74.628;2023-02-15T17:43:24;161.77;;;124.18;;
35745;SDS011;21870;42.812;74.628;2023-02-15T17:45:51;167.75;;;124.85;;
35745;SDS011;21870;42.812;74.628;2023-02-15T17:48:20;156.23;;;120.22;;
35745;SDS011;21870;42.812;74.628;2023-02-15T17:50:56;178.65;;;125.43;;
35745;SDS011;21870;42.812;74.628;2023-02-15T17:53:23;174.73;;;124.93;;
35745;SDS011;21870;42.812;74.628;2023-02-15T17:55:50;171.38;;;127.95;;
35745;SDS011;21870;42.812;74.628;2023-02-15T17:58:16;170.43;;;130.40;;
35745;SDS011;21870;42.812;74.628;2023-02-15T18:00:45;173.38;;;126.10;;